createdAt,value
2023-05-01T00:00:23.864Z,68.62
2023-05-01T00:02:50.511Z,69.08
2023-05-01T00:05:16.977Z,69.00
2023-05-01T00:07:43.458Z,69.06
2023-05-01T00:10:09.953Z,69.02
2023-05-01T00:12:36.397Z,68.23
2023-05-01T00:15:02.855Z,68.43
2023-05-01T00:17:31.018Z,68.45
2023-05-01T00:19:58.008Z,68.86
2023-05-01T00:22:24.676Z,69.21
2023-05-01T00:24:51.606Z,69.73
2023-05-01T00:27:18.042Z,69.73
2023-05-01T00:29:44.493Z,69.65
2023-05-01T00:32:11.140Z,69.40
2023-05-01T00:34:37.784Z,70.36
2023-05-01T00:37:04.211Z,69.66
2023-05-01T00:39:30.648Z,69.06
2023-05-01T00:41:57.535Z,69.14
2023-05-01T00:44:24.014Z,69.44
2023-05-01T00:46:50.460Z,69.17
2023-05-01T00:49:17.656Z,69.45
2023-05-01T00:51:44.255Z,69.31
2023-05-01T00:54:10.864Z,69.35
2023-05-01T00:56:37.289Z,69.52
2023-05-01T00:59:04.254Z,70.35
2023-05-01T01:01:30.781Z,69.05
2023-05-01T01:03:57.558Z,69.25
2023-05-01T01:06:45.001Z,69.04
2023-05-01T01:09:38.921Z,69.25
2023-05-01T01:12:20.878Z,68.87
2023-05-01T01:15:11.048Z,69.26
2023-05-01T01:17:53.516Z,69.28
2023-05-01T01:20:46.626Z,70.11
2023-05-01T01:23:47.418Z,69.04
2023-05-01T01:26:24.568Z,68.88
2023-05-01T01:29:03.898Z,68.86
2023-05-01T01:31:56.155Z,70.03
2023-05-01T01:34:27.676Z,69.66
2023-05-01T01:37:01.957Z,70.16
2023-05-01T01:40:01.513Z,69.30
2023-05-01T01:43:03.234Z,69.64
2023-05-01T01:45:33.174Z,69.95
2023-05-01T01:47:59.594Z,69.89
2023-05-01T01:50:26.583Z,70.04
2023-05-01T01:52:53.528Z,69.70
2023-05-01T01:55:22.715Z,69.17
2023-05-01T01:57:49.201Z,69.46
2023-05-01T02:00:16.440Z,70.24
2023-05-01T02:02:42.959Z,69.61
2023-05-01T02:05:11.858Z,69.05
2023-05-01T02:07:38.297Z,68.58
2023-05-01T02:10:05.458Z,69.10
2023-05-01T02:12:31.965Z,69.22
2023-05-01T02:14:58.793Z,69.09
2023-05-01T02:17:27.074Z,68.71
2023-05-01T02:19:55.217Z,68.95
2023-05-01T02:22:22.132Z,69.33
2023-05-01T02:24:48.837Z,69.40
2023-05-01T02:28:02.729Z,68.98
2023-05-01T02:30:29.212Z,68.76
2023-05-01T02:32:57.384Z,69.08
2023-05-01T02:35:24.121Z,69.83
2023-05-01T02:37:51.431Z,69.27
2023-05-01T02:40:17.923Z,69.08
2023-05-01T02:42:44.832Z,69.35
2023-05-01T02:45:23.452Z,69.44
2023-05-01T02:48:00.822Z,69.22
2023-05-01T02:50:28.399Z,68.68
2023-05-01T02:53:37.405Z,67.76
2023-05-01T02:56:12.540Z,68.22
2023-05-01T02:58:54.388Z,68.04
2023-05-01T03:01:27.036Z,69.47
2023-05-01T03:03:53.726Z,69.95
2023-05-01T03:06:20.326Z,68.71
2023-05-01T03:08:51.413Z,68.87
2023-05-01T03:11:25.406Z,65.27
2023-05-01T03:14:00.713Z,67.31
2023-05-01T03:16:33.323Z,66.64
2023-05-01T03:19:02.738Z,65.95
2023-05-01T03:21:29.580Z,66.55
2023-05-01T03:23:57.984Z,66.36
2023-05-01T03:26:24.713Z,66.96
2023-05-01T03:37:37.172Z,68.14
2023-05-01T03:40:05.727Z,67.89
2023-05-01T03:45:27.427Z,68.47
2023-05-01T03:50:52.625Z,67.94
2023-05-01T03:53:27.899Z,67.24
2023-05-01T03:56:10.700Z,68.89
2023-05-01T03:58:52.523Z,68.36
2023-05-01T04:01:36.391Z,68.29
2023-05-01T04:07:02.483Z,67.62
2023-05-01T04:09:30.039Z,67.87
2023-05-01T04:12:03.032Z,66.16
2023-05-01T04:14:38.550Z,66.62
2023-05-01T04:17:06.306Z,65.80
2023-05-01T04:19:36.096Z,66.65
2023-05-01T04:22:10.955Z,65.94
2023-05-01T04:24:40.396Z,67.43
2023-05-01T04:27:07.421Z,66.48
2023-05-01T04:29:37.352Z,66.07
2023-05-01T04:32:04.455Z,67.70
2023-05-01T04:34:33.348Z,66.28
2023-05-01T04:37:03.306Z,64.57
2023-05-01T04:39:31.047Z,66.04
2023-05-01T04:41:58.021Z,67.42
2023-05-01T04:44:24.852Z,64.73
2023-05-01T04:47:02.383Z,64.20
2023-05-01T04:49:29.263Z,67.33
2023-05-01T04:51:59.051Z,66.08
2023-05-01T04:54:28.480Z,67.46
2023-05-01T04:56:55.134Z,67.54
2023-05-01T04:59:24.059Z,66.36
2023-05-01T05:01:50.842Z,66.89
2023-05-01T05:04:17.346Z,67.58
2023-05-01T05:06:53.245Z,67.28
2023-05-01T05:09:20.355Z,67.50
2023-05-01T05:11:48.968Z,65.32
2023-05-01T05:14:16.073Z,67.31
2023-05-01T05:16:44.161Z,66.85
2023-05-01T05:19:11.143Z,63.91
2023-05-01T05:21:38.776Z,66.80
2023-05-01T05:24:05.836Z,65.74
2023-05-01T05:26:35.324Z,66.79
2023-05-01T05:29:02.237Z,67.59
2023-05-01T05:31:28.763Z,65.54
2023-05-01T05:34:02.245Z,66.78
2023-05-01T05:39:14.761Z,65.68
2023-05-01T05:41:56.010Z,66.33
2023-05-01T05:44:26.076Z,64.57
2023-05-01T05:46:59.097Z,66.05
2023-05-01T05:49:25.922Z,64.19
2023-05-01T05:51:56.704Z,65.13
2023-05-01T05:54:23.681Z,64.21
2023-05-01T05:56:50.244Z,67.01
2023-05-01T05:59:17.504Z,65.30
2023-05-01T06:01:44.323Z,64.49
2023-05-01T06:04:11.838Z,66.18
2023-05-01T06:06:38.815Z,65.34
2023-05-01T06:09:05.515Z,66.44
2023-05-01T06:11:34.485Z,66.70
2023-05-01T06:14:05.282Z,67.26
2023-05-01T06:16:31.811Z,65.86
2023-05-01T06:18:58.549Z,66.12
2023-05-01T06:21:27.347Z,67.46
2023-05-01T06:23:53.852Z,65.74
2023-05-01T06:26:21.642Z,65.37
2023-05-01T06:28:48.458Z,65.32
2023-05-01T06:31:15.180Z,66.45
2023-05-01T06:33:44.796Z,64.94
2023-05-01T06:36:13.734Z,64.05
2023-05-01T06:38:42.351Z,64.09
2023-05-01T06:41:17.180Z,65.55
2023-05-01T06:43:56.853Z,64.17
2023-05-01T06:46:28.294Z,65.20
2023-05-01T06:48:55.477Z,65.11
2023-05-01T06:51:23.804Z,63.38
2023-05-01T06:53:54.124Z,65.19
2023-05-01T06:56:29.148Z,65.97
2023-05-01T06:58:58.533Z,63.24
2023-05-01T07:01:27.779Z,64.21
2023-05-01T07:03:59.706Z,65.29
2023-05-01T07:06:32.348Z,62.45
2023-05-01T07:08:58.855Z,61.50
2023-05-01T07:11:26.813Z,60.40
2023-05-01T07:14:01.396Z,61.56
2023-05-01T07:16:28.204Z,60.51
2023-05-01T07:19:01.882Z,61.05
2023-05-01T07:21:28.394Z,60.55
2023-05-01T07:23:54.794Z,61.19
2023-05-01T07:26:21.369Z,60.15
2023-05-01T07:28:47.967Z,61.83
2023-05-01T07:31:14.439Z,63.25
2023-05-01T07:33:41.948Z,59.98
2023-05-01T07:36:09.181Z,62.86
2023-05-01T07:38:35.709Z,61.72
2023-05-01T07:41:02.237Z,59.49
2023-05-01T07:43:28.787Z,60.79
2023-05-01T07:46:18.388Z,61.74
2023-05-01T07:48:45.224Z,63.40
2023-05-01T07:51:11.661Z,60.73
2023-05-01T07:53:40.607Z,58.70
2023-05-01T07:56:09.935Z,57.91
2023-05-01T07:58:36.905Z,57.81
2023-05-01T08:01:03.643Z,58.68
2023-05-01T08:03:30.959Z,58.39
2023-05-01T08:05:57.672Z,56.22
2023-05-01T08:08:24.257Z,56.29
2023-05-01T08:10:51.332Z,60.11
2023-05-01T08:13:18.171Z,54.57
2023-05-01T08:15:47.838Z,54.29
2023-05-01T08:18:20.080Z,57.07
2023-05-01T08:20:48.034Z,56.43
2023-05-01T08:23:15.580Z,55.52
2023-05-01T08:25:42.051Z,51.89
2023-05-01T08:28:08.477Z,55.80
2023-05-01T08:30:34.957Z,56.60
2023-05-01T08:33:01.379Z,53.66
2023-05-01T08:35:27.891Z,52.17
2023-05-01T08:37:54.384Z,51.36
2023-05-01T08:40:20.849Z,53.96
2023-05-01T08:42:47.890Z,51.21
2023-05-01T08:45:14.346Z,51.13
2023-05-01T08:47:40.818Z,53.73
2023-05-01T08:50:13.238Z,54.59
2023-05-01T08:52:43.199Z,54.63
2023-05-01T08:55:14.013Z,51.99
2023-05-01T08:57:47.017Z,52.25
2023-05-01T09:00:20.883Z,51.97
2023-05-01T09:02:48.532Z,54.13
2023-05-01T09:05:16.063Z,52.37
2023-05-01T09:07:42.836Z,55.20
2023-05-01T09:10:10.108Z,54.84
2023-05-01T09:12:36.900Z,54.77
2023-05-01T09:15:04.271Z,54.34
2023-05-01T09:17:31.770Z,54.29
2023-05-01T09:19:58.463Z,53.50
2023-05-01T09:22:25.064Z,54.68
2023-05-01T09:24:51.531Z,53.76
2023-05-01T09:27:18.131Z,54.58
2023-05-01T09:29:48.011Z,54.79
2023-05-01T09:32:23.412Z,51.85
2023-05-01T09:34:50.714Z,53.20
2023-05-01T09:37:30.814Z,56.87
2023-05-01T09:40:08.394Z,57.40
2023-05-01T09:42:36.755Z,53.77
2023-05-01T09:45:05.694Z,55.78
2023-05-01T09:47:34.066Z,55.40
2023-05-01T09:50:00.578Z,57.47
2023-05-01T09:52:28.110Z,58.46
2023-05-01T09:55:13.742Z,61.18
2023-05-01T09:57:40.357Z,61.08
2023-05-01T10:00:08.666Z,61.26
2023-05-01T10:02:35.269Z,60.35
2023-05-01T10:05:01.911Z,62.38
2023-05-01T10:07:29.187Z,62.04
2023-05-01T10:09:56.602Z,61.06
2023-05-01T10:12:25.723Z,60.32
2023-05-01T10:14:56.491Z,59.87
2023-05-01T10:17:22.969Z,58.39
2023-05-01T10:19:49.696Z,56.67
2023-05-01T10:22:16.332Z,58.97
2023-05-01T10:24:43.532Z,56.89
2023-05-01T10:27:10.487Z,60.26
2023-05-01T10:29:37.768Z,59.22
2023-05-01T10:32:04.417Z,59.89
2023-05-01T10:34:32.573Z,60.25
2023-05-01T10:37:04.045Z,57.27
2023-05-01T10:39:34.423Z,57.72
2023-05-01T10:42:03.468Z,59.70
2023-05-01T10:44:30.614Z,61.73
2023-05-01T10:46:57.125Z,61.09
2023-05-01T10:49:23.719Z,61.97
2023-05-01T10:51:59.000Z,61.46
2023-05-01T10:54:29.197Z,61.04
2023-05-01T10:56:58.262Z,59.87
2023-05-01T10:59:24.959Z,60.73
2023-05-01T11:01:52.177Z,61.26
2023-05-01T11:04:24.716Z,61.68
2023-05-01T11:07:08.137Z,62.11
2023-05-01T11:09:39.621Z,60.68
2023-05-01T11:12:06.536Z,59.05
2023-05-01T11:15:05.255Z,61.80
2023-05-01T11:17:40.798Z,60.77
2023-05-01T11:20:34.002Z,58.89
2023-05-01T11:23:00.675Z,60.27
2023-05-01T11:25:28.954Z,59.98
2023-05-01T11:28:02.751Z,59.24
2023-05-01T11:30:41.264Z,58.51
2023-05-01T11:33:10.221Z,58.77
2023-05-01T11:35:37.342Z,59.97
2023-05-01T11:38:03.784Z,61.17
2023-05-01T11:40:34.297Z,61.09
2023-05-01T11:43:07.222Z,60.75
2023-05-01T11:45:34.838Z,61.98
2023-05-01T11:48:04.514Z,63.30
2023-05-01T11:50:36.157Z,63.29
2023-05-01T11:53:03.310Z,62.09
2023-05-01T11:55:33.582Z,61.57
2023-05-01T11:58:00.082Z,60.04
2023-05-01T12:00:30.676Z,61.63
2023-05-01T12:03:06.631Z,61.27
2023-05-01T12:05:37.037Z,62.30
2023-05-01T12:08:12.687Z,62.47
2023-05-01T12:10:40.746Z,63.06
2023-05-01T12:13:08.053Z,60.60
2023-05-01T12:15:36.182Z,62.10
2023-05-01T12:18:03.585Z,61.25
2023-05-01T12:20:37.864Z,61.29
2023-05-01T12:23:05.595Z,60.51
2023-05-01T12:25:35.175Z,63.67
2023-05-01T12:28:03.011Z,61.79
2023-05-01T12:30:29.732Z,62.70
2023-05-01T12:32:57.374Z,60.33
2023-05-01T12:35:29.441Z,61.06
2023-05-01T12:37:56.863Z,57.84
2023-05-01T12:40:23.487Z,58.14
2023-05-01T12:42:57.506Z,60.29
2023-05-01T12:45:24.395Z,59.44
2023-05-01T12:47:50.886Z,59.47
2023-05-01T12:50:17.377Z,57.35
2023-05-01T12:52:43.802Z,56.98
2023-05-01T12:55:10.336Z,59.10
2023-05-01T12:57:36.774Z,57.67
2023-05-01T13:00:05.013Z,57.94
2023-05-01T13:02:34.433Z,57.94
2023-05-01T13:05:10.925Z,56.32
2023-05-01T13:07:38.343Z,58.29
2023-05-01T13:10:06.264Z,59.32
2023-05-01T13:12:32.881Z,58.62
2023-05-01T13:14:59.626Z,55.76
2023-05-01T13:17:30.341Z,59.29
2023-05-01T13:20:02.052Z,59.79
2023-05-01T13:22:36.228Z,60.40
2023-05-01T13:25:04.627Z,60.25
2023-05-01T13:27:31.147Z,55.89
2023-05-01T13:29:59.323Z,58.45
2023-05-01T13:32:26.295Z,56.50
2023-05-01T13:34:54.071Z,58.81
2023-05-01T13:37:21.288Z,57.02
2023-05-01T13:39:48.007Z,56.65
2023-05-01T13:42:23.529Z,60.81
2023-05-01T13:44:56.681Z,62.83
2023-05-01T13:47:26.413Z,58.35
2023-05-01T13:49:52.762Z,58.72
2023-05-01T13:52:19.521Z,59.74
2023-05-01T13:54:46.722Z,61.16
2023-05-01T13:57:13.159Z,62.20
2023-05-01T13:59:41.191Z,61.38
2023-05-01T14:02:28.395Z,61.42
2023-05-01T14:04:55.117Z,61.83
2023-05-01T14:07:22.627Z,61.65
2023-05-01T14:09:56.592Z,62.09
2023-05-01T14:12:34.387Z,61.53
2023-05-01T14:15:01.781Z,63.81
2023-05-01T14:17:35.798Z,62.13
2023-05-01T14:20:02.773Z,61.37
2023-05-01T14:22:36.372Z,60.04
2023-05-01T14:25:05.546Z,59.63
2023-05-01T14:27:33.385Z,60.70
2023-05-01T14:29:59.811Z,61.00
2023-05-01T14:32:27.041Z,60.86
2023-05-01T14:34:53.536Z,60.41
2023-05-01T14:37:19.963Z,61.50
2023-05-01T14:39:46.376Z,60.80
2023-05-01T14:42:12.834Z,61.38
2023-05-01T14:44:39.372Z,61.82
2023-05-01T14:47:06.112Z,61.12
2023-05-01T14:49:33.126Z,58.39
2023-05-01T14:51:59.524Z,60.94
2023-05-01T14:54:25.995Z,60.74
2023-05-01T14:56:53.287Z,62.03
2023-05-01T14:59:19.697Z,63.08
2023-05-01T15:01:46.213Z,63.28
2023-05-01T15:04:13.074Z,62.66
2023-05-01T15:06:39.728Z,61.63
2023-05-01T15:09:06.307Z,63.38
2023-05-01T15:11:32.770Z,64.25
2023-05-01T15:13:59.219Z,63.17
2023-05-01T15:16:26.075Z,62.88
2023-05-01T15:18:52.760Z,62.21
2023-05-01T15:21:19.485Z,62.49
2023-05-01T15:23:46.050Z,59.71
2023-05-01T15:26:12.510Z,61.65
2023-05-01T15:28:38.956Z,60.66
2023-05-01T15:31:05.887Z,62.02
2023-05-01T15:33:32.355Z,64.36
2023-05-01T15:35:58.854Z,62.61
2023-05-01T15:38:26.032Z,63.24
2023-05-01T15:40:52.521Z,63.88
2023-05-01T15:43:19.102Z,64.22
2023-05-01T15:45:45.745Z,62.27
2023-05-01T15:48:12.457Z,63.92
2023-05-01T15:50:39.009Z,64.93
2023-05-01T15:53:05.415Z,64.40
2023-05-01T15:55:32.096Z,63.29
2023-05-01T15:57:58.589Z,62.56
2023-05-01T16:00:25.441Z,62.69
2023-05-01T16:02:52.036Z,62.26
2023-05-01T16:05:21.215Z,60.01
2023-05-01T16:07:50.631Z,61.20
2023-05-01T16:10:17.134Z,61.57
2023-05-01T16:12:43.655Z,61.61
2023-05-01T16:15:10.640Z,62.30
2023-05-01T16:17:43.361Z,59.72
2023-05-01T16:20:14.144Z,62.19
2023-05-01T16:22:41.096Z,62.57
2023-05-01T16:25:09.105Z,63.92
2023-05-01T16:27:37.196Z,64.02
2023-05-01T16:30:05.269Z,63.71
2023-05-01T16:32:31.732Z,64.06
2023-05-01T16:34:58.642Z,63.94
2023-05-01T16:37:25.047Z,64.18
2023-05-01T16:39:51.669Z,64.10
2023-05-01T16:42:18.064Z,64.14
2023-05-01T16:44:44.496Z,63.91
2023-05-01T16:47:14.063Z,63.41
2023-05-01T16:49:41.160Z,64.17
2023-05-01T16:52:08.262Z,63.09
2023-05-01T16:54:37.440Z,63.43
2023-05-01T16:57:03.925Z,64.19
2023-05-01T16:59:30.473Z,63.79
2023-05-01T17:01:57.056Z,63.55
2023-05-01T17:04:24.785Z,63.90
2023-05-01T17:06:51.636Z,64.04
2023-05-01T17:09:18.122Z,64.37
2023-05-01T17:11:44.531Z,64.15
2023-05-01T17:14:11.309Z,64.53
2023-05-01T17:16:37.768Z,64.33
2023-05-01T17:19:08.734Z,64.41
2023-05-01T17:21:35.799Z,64.39
2023-05-01T17:24:02.455Z,64.63
2023-05-01T17:26:28.864Z,65.26
2023-05-01T17:28:55.288Z,64.26
2023-05-01T17:31:22.701Z,64.51
2023-05-01T17:33:49.399Z,64.23
2023-05-01T17:36:15.877Z,63.63
2023-05-01T17:38:42.279Z,63.50
2023-05-01T17:41:08.692Z,64.16
2023-05-01T17:43:35.101Z,64.11
2023-05-01T17:46:01.583Z,65.08
2023-05-01T17:48:28.090Z,65.66
2023-05-01T17:50:55.667Z,65.77
2023-05-01T17:53:23.198Z,65.26
2023-05-01T17:55:49.670Z,66.04
2023-05-01T17:58:16.144Z,66.67
2023-05-01T18:00:42.564Z,65.48
2023-05-01T18:03:09.287Z,65.21
2023-05-01T18:05:35.968Z,64.95
2023-05-01T18:08:02.417Z,66.22
2023-05-01T18:10:31.098Z,65.88
2023-05-01T18:12:58.152Z,66.56
2023-05-01T18:15:24.721Z,65.70
2023-05-01T18:17:51.411Z,66.27
2023-05-01T18:20:17.918Z,66.47
2023-05-01T18:22:44.423Z,66.88
2023-05-01T18:25:10.942Z,67.37
2023-05-01T18:27:38.162Z,66.51
2023-05-01T18:30:05.133Z,66.58
2023-05-01T18:32:46.017Z,66.91
2023-05-01T18:35:13.789Z,67.33
2023-05-01T18:37:42.243Z,66.54
2023-05-01T18:40:09.487Z,66.43
2023-05-01T18:42:35.912Z,66.19
2023-05-01T18:45:03.067Z,67.19
2023-05-01T18:47:29.552Z,66.80
2023-05-01T18:49:56.078Z,66.81
2023-05-01T18:52:22.570Z,66.87
2023-05-01T18:54:49.132Z,66.95
2023-05-01T18:57:15.929Z,66.39
2023-05-01T18:59:44.736Z,66.67
2023-05-01T19:02:11.529Z,67.36
2023-05-01T19:04:49.188Z,67.32
2023-05-01T19:07:22.222Z,67.18
2023-05-01T19:09:48.660Z,67.27
2023-05-01T19:12:16.310Z,68.14
2023-05-01T19:14:42.760Z,67.64
2023-05-01T19:17:09.260Z,67.53
2023-05-01T19:19:35.656Z,67.55
2023-05-01T19:22:02.072Z,67.39
2023-05-01T19:24:28.573Z,67.38
2023-05-01T19:26:55.021Z,67.31
2023-05-01T19:29:22.486Z,67.33
2023-05-01T19:31:49.224Z,67.60
2023-05-01T19:34:15.802Z,68.31
2023-05-01T19:36:42.213Z,67.19
2023-05-01T19:39:08.735Z,67.00
2023-05-01T19:41:35.155Z,67.40
2023-05-01T19:44:01.610Z,66.84
2023-05-01T19:46:28.144Z,67.38
2023-05-01T19:48:54.660Z,67.38
2023-05-01T19:51:21.264Z,66.87
2023-05-01T19:53:47.769Z,67.11
2023-05-01T19:56:14.545Z,66.28
2023-05-01T19:58:41.801Z,66.56
2023-05-01T20:01:11.596Z,66.61
2023-05-01T20:03:38.132Z,66.57
2023-05-01T20:06:06.241Z,66.79
2023-05-01T20:08:33.435Z,66.27
2023-05-01T20:11:00.561Z,66.40
2023-05-01T20:13:27.022Z,66.41
2023-05-01T20:15:53.770Z,66.55
2023-05-01T20:18:20.677Z,67.01
2023-05-01T20:20:47.084Z,66.48
2023-05-01T20:23:14.464Z,66.92
2023-05-01T20:25:41.164Z,66.59
2023-05-01T20:28:08.836Z,66.17
2023-05-01T20:30:39.900Z,66.21
2023-05-01T20:33:07.668Z,66.24
2023-05-01T20:35:34.625Z,65.75
2023-05-01T20:38:01.780Z,65.70
2023-05-01T20:40:28.738Z,65.05
2023-05-01T20:42:55.588Z,65.40
2023-05-01T20:45:22.019Z,66.08
2023-05-01T20:47:48.798Z,66.30
2023-05-01T20:50:17.125Z,65.19
2023-05-01T20:52:44.442Z,65.26
2023-05-01T20:55:11.378Z,64.89
2023-05-01T20:57:38.489Z,65.74
2023-05-01T21:00:05.441Z,65.86
2023-05-01T21:02:31.923Z,65.86
2023-05-01T21:04:58.378Z,65.09
2023-05-01T21:07:25.122Z,65.05
2023-05-01T21:09:51.552Z,65.29
2023-05-01T21:12:18.005Z,65.15
2023-05-01T21:14:44.423Z,64.42
2023-05-01T21:17:10.859Z,64.69
2023-05-01T21:19:44.347Z,64.93
2023-05-01T21:22:15.691Z,64.86
2023-05-01T21:24:45.215Z,65.06
2023-05-01T21:27:12.320Z,65.29
2023-05-01T21:29:39.927Z,64.74
2023-05-01T21:32:07.554Z,64.79
2023-05-01T21:34:34.420Z,65.47
2023-05-01T21:37:00.848Z,65.38
2023-05-01T21:39:27.261Z,65.50
2023-05-01T21:41:53.682Z,65.62
2023-05-01T21:44:28.635Z,64.84
2023-05-01T21:46:55.271Z,65.79
2023-05-01T21:49:26.811Z,65.48
2023-05-01T21:51:53.853Z,65.68
2023-05-01T21:54:21.650Z,65.91
2023-05-01T21:56:48.348Z,65.19
2023-05-01T21:59:14.791Z,65.93
2023-05-01T22:01:41.527Z,65.78
2023-05-01T22:04:08.143Z,66.33
2023-05-01T22:06:34.722Z,66.03
2023-05-01T22:09:01.164Z,66.10
2023-05-01T22:11:27.938Z,65.51
2023-05-01T22:13:54.360Z,66.81
2023-05-01T22:16:20.787Z,64.91
2023-05-01T22:18:49.778Z,64.96
2023-05-01T22:21:16.728Z,65.61
2023-05-01T22:23:43.132Z,66.25
2023-05-01T22:26:09.780Z,66.48
2023-05-01T22:28:36.209Z,66.55
2023-05-01T22:31:03.163Z,66.35
2023-05-01T22:33:29.839Z,65.90
2023-05-01T22:35:56.269Z,65.17
2023-05-01T22:38:22.720Z,67.13
2023-05-01T22:40:49.150Z,67.13
2023-05-01T22:43:16.137Z,66.38
2023-05-01T22:45:42.878Z,67.17
2023-05-01T22:48:09.402Z,66.88
2023-05-01T22:50:35.898Z,67.52
2023-05-01T22:53:02.358Z,66.90
2023-05-01T22:55:28.849Z,66.25
2023-05-01T22:57:55.304Z,66.44
2023-05-01T23:00:22.149Z,66.71
2023-05-01T23:02:48.643Z,66.21
2023-05-01T23:05:15.541Z,66.22
2023-05-01T23:07:42.955Z,66.57
2023-05-01T23:10:09.922Z,66.65
2023-05-01T23:12:42.100Z,66.36
2023-05-01T23:15:10.702Z,66.48
2023-05-01T23:17:37.437Z,65.95
2023-05-01T23:20:05.830Z,66.27
2023-05-01T23:22:32.243Z,66.27
2023-05-01T23:24:58.644Z,66.72
2023-05-01T23:27:25.105Z,66.67
2023-05-01T23:29:58.122Z,66.69
2023-05-01T23:32:29.171Z,66.18
2023-05-01T23:34:56.116Z,65.80
2023-05-01T23:37:22.612Z,66.07
2023-05-01T23:39:49.295Z,66.22
2023-05-01T23:42:15.720Z,66.19
2023-05-01T23:44:42.402Z,66.45
2023-05-01T23:47:08.889Z,66.21
2023-05-01T23:49:35.377Z,66.06
2023-05-01T23:52:01.783Z,66.05
2023-05-01T23:54:28.186Z,66.50
2023-05-01T23:56:54.711Z,66.39
2023-05-01T23:59:21.522Z,67.50
